Pagrindinis puslapis
METAR-TAF:

METAR-TAF

Oro uostai :

Santorinas, Graikija

platuma: 36-24N, ilguma: 025-29E, Aukštis: 38 m

Dabartinis oras

Ataskaita buvo paskelbta 33 minutes, ne 06:20 UTC
Vėjas 14 kt iš Šiaurės
Temperatūra 14°C
Drėgmė 58%
Slėgis 1014 hPa
Matomumas 10 km arba daugiau
nėra debesų žemiau 1500 m ir nėra kamuolinių lietaus debesų

METAR: LGSR 100620Z 35014KT CAVOK 14/06 Q1014

Laikas: 09:53 (06:53 UTC)

Prognozė

Ataskaita buvo paskelbta 1 valandą ir 53 minutes, ne 05:00 UTC
Prognozė galioja nuo 10 metu 06 UTC su 11 metu 06 UTC
Vėjas 20 kt iš Šiaurės
Matomumas 10 km arba daugiau
Mažai debesys ne aukštis 2000 ft

TAF: LGSR 100500Z 1006/1106 35020KT 9999 FEW020

Orai ataskaitas ir orų prognozės (METAR, TAF).

turimą stotys yra geltonos ir raudonos taškus žemėlapyje.

Perkelti pele per norėdami pamatyti stoties vardą.

Tada spustelėkite, norėdami matyti oro stebėjimo ir prognozės.

Norėdami pakeisti žemėlapį: spustelėkite ant žalios mygtukų su juodo kryžiaus žemyn,; žalią mygtuką su brūkšneliu, jei norite nutolinti; arba žalių rodyklių gretimoms žemėlapius.


METAR-TAF: